Time;durP1;ratioP1;P1;durP2;ratioP2;P2;SDS_P1;SDS_P2;PMS_P1;PMS_P2;Temp;Humidity;BMP_temperature;BMP_pressure;BME280_temperature;BME280_humidity;BME280_pressure;Samples;Min_cycle;Max_cycle;Signal;HPM_P1;HPM_P2
2023/03/02 00:01:22;;;;;;;229.27;88.43;;;4.90;99.90;;;;;;5053816;28;20029;-82
2023/03/02 00:03:48;;;;;;;224.85;89.32;;;4.90;99.90;;;;;;5054511;28;20033;-79
2023/03/02 00:06:14;;;;;;;225.70;87.78;;;4.90;99.90;;;;;;5053464;28;20539;-80
2023/03/02 00:08:41;;;;;;;254.35;98.57;;;4.90;99.90;;;;;;5054785;28;20057;-80
2023/03/02 00:11:08;;;;;;;271.08;106.88;;;4.90;99.90;;;;;;5052616;28;20376;-82
2023/03/02 00:13:36;;;;;;;263.15;99.65;;;4.90;99.90;;;;;;5054386;28;20032;-78
2023/03/02 00:16:01;;;;;;;268.45;107.07;;;4.90;99.90;;;;;;5054538;28;20017;-78
2023/03/02 00:18:27;;;;;;;281.13;105.20;;;4.90;99.90;;;;;;5053571;28;20028;-79
2023/03/02 00:20:53;;;;;;;279.42;110.20;;;4.90;99.90;;;;;;5053430;28;20455;-80
2023/03/02 00:23:18;;;;;;;259.15;99.85;;;4.80;99.90;;;;;;5052419;28;20029;-80
2023/03/02 00:25:44;;;;;;;269.35;108.70;;;4.80;99.90;;;;;;5054451;28;20033;-79
2023/03/02 00:28:10;;;;;;;266.05;107.10;;;4.90;99.90;;;;;;5053397;28;20025;-82
2023/03/02 00:30:37;;;;;;;270.27;109.80;;;4.90;99.90;;;;;;5053907;28;20047;-81
2023/03/02 00:33:03;;;;;;;290.40;116.43;;;4.80;99.90;;;;;;5054432;28;20029;-80
2023/03/02 00:35:29;;;;;;;272.52;111.13;;;4.90;99.90;;;;;;5054335;28;20414;-80
2023/03/02 00:37:54;;;;;;;262.17;101.80;;;4.90;99.90;;;;;;5055220;28;20029;-80
2023/03/02 00:40:20;;;;;;;253.80;100.28;;;4.90;99.90;;;;;;5054420;28;20098;-79
2023/03/02 00:42:46;;;;;;;260.60;101.18;;;4.90;99.90;;;;;;5055483;28;20036;-80
2023/03/02 00:45:12;;;;;;;279.65;109.95;;;4.90;99.90;;;;;;5053795;28;20430;-79
2023/03/02 00:47:38;;;;;;;292.45;115.38;;;4.90;99.90;;;;;;5053066;28;20025;-81
2023/03/02 00:50:05;;;;;;;308.95;122.78;;;4.90;99.90;;;;;;5054448;28;20107;-77
2023/03/02 00:52:32;;;;;;;355.30;139.23;;;4.90;99.90;;;;;;5054974;28;20037;-80
2023/03/02 00:54:57;;;;;;;340.58;138.10;;;4.90;99.90;;;;;;5049100;28;20029;-79
2023/03/02 00:57:23;;;;;;;332.55;138.55;;;4.80;99.90;;;;;;5053514;28;20055;-82
2023/03/02 00:59:49;;;;;;;352.60;141.40;;;4.80;99.90;;;;;;5053391;28;20029;-80
2023/03/02 01:02:15;;;;;;;343.00;142.65;;;4.70;99.90;;;;;;5053064;28;20391;-79
2023/03/02 01:04:43;;;;;;;340.70;146.63;;;4.70;99.90;;;;;;5055225;28;20029;-79
2023/03/02 01:07:15;;;;;;;354.98;147.63;;;4.70;99.90;;;;;;5054657;28;20112;-80
2023/03/02 01:09:41;;;;;;;;;;;4.70;99.90;;;;;;5054387;28;20021;-80
2023/03/02 01:12:09;;;;;;;332.25;141.43;;;4.70;99.90;;;;;;5054008;28;19988;-80
2023/03/02 01:14:36;;;;;;;343.70;145.10;;;4.70;99.90;;;;;;5051435;28;20075;-80
2023/03/02 01:17:03;;;;;;;335.52;141.00;;;4.70;99.90;;;;;;5053528;28;20494;-78
2023/03/02 01:19:29;;;;;;;307.90;126.55;;;4.80;99.90;;;;;;5052897;28;20055;-81
2023/03/02 01:21:55;;;;;;;285.67;116.80;;;4.70;99.90;;;;;;5053990;28;20065;-78
2023/03/02 01:24:20;;;;;;;276.15;112.72;;;4.70;99.90;;;;;;5053053;28;20033;-78
2023/03/02 01:26:46;;;;;;;250.77;100.10;;;4.80;99.90;;;;;;5053392;28;20024;-79
2023/03/02 01:29:12;;;;;;;278.10;110.50;;;4.80;99.90;;;;;;5053875;28;20025;-80
2023/03/02 01:31:38;;;;;;;281.05;115.55;;;4.80;99.90;;;;;;5054155;28;20112;-78
2023/03/02 01:34:04;;;;;;;278.63;111.50;;;4.80;99.90;;;;;;5054244;28;20029;-78
2023/03/02 01:36:29;;;;;;;295.30;118.28;;;4.80;99.90;;;;;;5054206;28;20025;-81
2023/03/02 01:38:55;;;;;;;251.68;99.10;;;4.80;99.90;;;;;;5054126;28;20055;-79
2023/03/02 01:41:21;;;;;;;241.27;96.72;;;4.80;99.90;;;;;;5054085;28;20045;-80
2023/03/02 01:43:47;;;;;;;233.02;92.30;;;4.80;99.90;;;;;;5052781;28;20407;-79
2023/03/02 01:46:18;;;;;;;238.18;92.07;;;4.80;99.90;;;;;;5054579;28;20037;-82
2023/03/02 01:49:01;;;;;;;253.63;95.07;;;4.80;99.90;;;;;;5053989;28;20376;-80
2023/03/02 01:51:30;;;;;;;232.38;92.95;;;4.80;99.90;;;;;;5052699;28;20102;-78
2023/03/02 01:54:03;;;;;;;244.50;97.00;;;4.80;99.90;;;;;;5054151;28;20051;-78
2023/03/02 01:56:35;;;;;;;231.23;94.70;;;4.90;99.90;;;;;;5052767;28;20119;-78
2023/03/02 01:59:10;;;;;;;;;;;4.90;99.90;;;;;;5054632;28;20025;-77
2023/03/02 02:01:38;;;;;;;238.25;92.97;;;4.90;99.90;;;;;;5052906;28;19914;-79
2023/03/02 02:04:05;;;;;;;223.57;87.13;;;4.80;99.90;;;;;;5053023;28;20025;-79
2023/03/02 02:06:37;;;;;;;181.55;71.15;;;4.80;99.90;;;;;;5053455;28;20108;-77
2023/03/02 02:09:04;;;;;;;163.30;62.55;;;4.90;99.90;;;;;;5053028;28;20494;-78
2023/03/02 02:11:30;;;;;;;169.20;65.15;;;4.90;99.90;;;;;;5052519;28;20044;-82
2023/03/02 02:13:58;;;;;;;109.30;46.58;;;4.90;99.90;;;;;;5053096;28;20051;-81
2023/03/02 02:16:27;;;;;;;123.07;47.58;;;5.00;99.90;;;;;;5052860;28;20033;-78
2023/03/02 02:18:54;;;;;;;100.63;40.03;;;5.00;99.90;;;;;;5051576;28;20037;-79
2023/03/02 02:21:21;;;;;;;90.85;35.63;;;4.90;99.90;;;;;;5052803;28;20037;-79
2023/03/02 02:24:05;;;;;;;87.53;35.90;;;5.00;99.90;;;;;;5053108;28;20028;-83
2023/03/02 02:26:51;;;;;;;84.10;34.55;;;5.00;99.90;;;;;;5052489;28;20031;-81
2023/03/02 02:29:25;;;;;;;85.95;35.53;;;5.10;99.90;;;;;;5053159;28;20032;-78
2023/03/02 02:32:00;;;;;;;82.85;35.38;;;5.00;99.90;;;;;;5052962;28;20118;-79
2023/03/02 02:34:34;;;;;;;68.05;29.73;;;5.10;99.90;;;;;;5052854;28;20499;-78
2023/03/02 02:37:24;;;;;;;74.97;30.45;;;5.10;99.90;;;;;;5052759;28;20385;-79
2023/03/02 02:39:51;;;;;;;71.18;29.33;;;5.10;99.90;;;;;;5046867;28;20033;-78
2023/03/02 02:42:26;;;;;;;65.53;28.38;;;5.10;99.90;;;;;;5051661;28;20497;-82
2023/03/02 02:44:57;;;;;;;61.25;26.20;;;5.10;99.90;;;;;;5052580;28;20027;-78
2023/03/02 02:47:23;;;;;;;71.53;27.30;;;5.20;99.90;;;;;;5052797;28;20082;-79
2023/03/02 02:49:53;;;;;;;66.70;26.67;;;5.20;99.90;;;;;;5053533;28;20071;-80
2023/03/02 02:52:21;;;;;;;54.42;24.33;;;5.20;99.90;;;;;;5053069;28;20044;-81
2023/03/02 02:54:51;;;;;;;46.67;20.90;;;5.20;99.90;;;;;;5053137;28;20021;-80
2023/03/02 02:57:19;;;;;;;37.65;19.05;;;5.20;99.90;;;;;;5053016;28;20112;-78
2023/03/02 02:59:51;;;;;;;40.15;18.15;;;5.20;99.90;;;;;;5052456;28;20040;-79
2023/03/02 03:02:23;;;;;;;40.17;18.00;;;5.20;99.90;;;;;;5052615;28;20029;-79
2023/03/02 03:04:49;;;;;;;42.17;18.38;;;5.20;99.90;;;;;;5052653;28;20021;-79
2023/03/02 03:07:20;;;;;;;43.83;20.73;;;5.20;99.90;;;;;;5052632;28;20041;-80
2023/03/02 03:10:13;;;;;;;42.10;19.17;;;5.30;99.90;;;;;;5052474;28;20033;-79
2023/03/02 03:12:38;;;;;;;;;;;5.30;99.90;;;;;;5042415;28;20045;-79
2023/03/02 03:15:06;;;;;;;47.60;18.63;;;5.30;99.90;;;;;;5052216;28;19909;-79
2023/03/02 03:17:32;;;;;;;43.95;18.25;;;5.30;99.90;;;;;;5051353;28;20064;-79
2023/03/02 03:20:04;;;;;;;39.33;18.02;;;5.30;99.90;;;;;;5051449;28;20060;-79
2023/03/02 03:22:32;;;;;;;40.60;17.40;;;5.30;99.90;;;;;;5050938;28;20021;-80
2023/03/02 03:24:58;;;;;;;40.33;17.27;;;5.30;99.90;;;;;;5049526;28;20501;-80
2023/03/02 03:27:24;;;;;;;38.22;16.30;;;5.30;99.90;;;;;;5052333;28;20060;-77
2023/03/02 03:29:50;;;;;;;38.22;15.35;;;5.40;99.90;;;;;;5052156;28;20024;-78
2023/03/02 03:32:16;;;;;;;34.72;14.50;;;5.40;99.90;;;;;;5052495;28;20377;-83
2023/03/02 03:34:42;;;;;;;33.83;16.20;;;5.40;99.90;;;;;;5052248;28;20036;-78
2023/03/02 03:37:10;;;;;;;38.33;17.33;;;5.40;99.90;;;;;;5052932;28;20025;-80
2023/03/02 03:39:36;;;;;;;37.05;17.98;;;5.40;99.90;;;;;;5055849;28;20024;-78
2023/03/02 03:42:03;;;;;;;39.88;17.17;;;5.40;99.90;;;;;;5055530;28;20052;-81
2023/03/02 03:44:29;;;;;;;37.30;17.35;;;5.40;99.90;;;;;;5056144;28;20037;-79
2023/03/02 03:46:55;;;;;;;38.10;15.60;;;5.40;99.90;;;;;;5054793;28;20082;-79
2023/03/02 03:49:20;;;;;;;41.05;18.67;;;5.40;99.90;;;;;;5054539;28;20039;-82
2023/03/02 03:51:46;;;;;;;99.25;42.08;;;5.40;99.90;;;;;;5055561;28;20033;-81
2023/03/02 03:54:12;;;;;;;126.03;51.50;;;5.30;99.90;;;;;;5055621;28;20033;-79
2023/03/02 03:56:42;;;;;;;141.98;58.70;;;5.10;99.90;;;;;;5055691;28;20090;-79
2023/03/02 03:59:15;;;;;;;135.98;57.63;;;4.90;99.90;;;;;;5055798;28;20033;-80
2023/03/02 04:01:52;;;;;;;128.45;56.53;;;4.80;99.90;;;;;;5056173;28;20025;-80
2023/03/02 04:04:27;;;;;;;145.80;59.70;;;4.70;99.90;;;;;;5056357;28;20107;-78
2023/03/02 04:06:54;;;;;;;143.57;57.55;;;4.60;99.90;;;;;;5055830;28;20431;-80
2023/03/02 04:09:20;;;;;;;147.50;56.95;;;4.50;99.90;;;;;;5056157;28;20057;-80
2023/03/02 04:11:49;;;;;;;148.10;58.78;;;4.50;99.90;;;;;;5054423;28;20507;-79
2023/03/02 04:14:16;;;;;;;157.35;58.78;;;4.40;99.90;;;;;;5055772;28;20029;-80
2023/03/02 04:16:43;;;;;;;150.65;56.15;;;4.40;99.90;;;;;;5054410;28;20025;-79
2023/03/02 04:19:09;;;;;;;147.30;58.92;;;4.30;99.90;;;;;;5055641;28;20060;-80
2023/03/02 04:21:36;;;;;;;158.32;60.22;;;4.30;99.90;;;;;;5054630;28;20032;-79
2023/03/02 04:24:02;;;;;;;168.55;62.92;;;4.30;99.90;;;;;;5054333;28;20040;-78
2023/03/02 04:26:28;;;;;;;160.93;59.70;;;4.30;99.90;;;;;;5056080;28;20029;-78
2023/03/02 04:28:54;;;;;;;163.15;69.65;;;4.20;99.90;;;;;;5056053;28;20100;-80
2023/03/02 04:31:19;;;;;;;162.20;64.28;;;4.20;99.90;;;;;;5055119;28;20029;-78
2023/03/02 04:33:45;;;;;;;191.30;67.15;;;4.20;99.90;;;;;;5055417;28;20029;-79
2023/03/02 04:36:11;;;;;;;213.05;80.15;;;4.20;99.90;;;;;;5055061;28;20036;-77
2023/03/02 04:38:36;;;;;;;206.70;81.90;;;4.30;99.90;;;;;;5054684;28;20031;-77
2023/03/02 04:41:02;;;;;;;205.52;78.45;;;4.30;99.90;;;;;;5054352;28;20138;-80
2023/03/02 04:43:28;;;;;;;175.50;71.30;;;4.30;99.90;;;;;;5054676;28;20032;-78
2023/03/02 04:45:55;;;;;;;180.18;69.65;;;4.30;99.90;;;;;;5054262;28;20025;-80
2023/03/02 04:48:21;;;;;;;196.93;73.90;;;4.40;99.90;;;;;;5053528;28;20079;-80
2023/03/02 04:50:47;;;;;;;246.85;84.95;;;4.40;99.90;;;;;;5054849;28;20083;-80
2023/03/02 04:53:12;;;;;;;267.45;92.28;;;4.40;99.90;;;;;;5054123;28;20040;-78
2023/03/02 04:55:39;;;;;;;268.85;106.20;;;4.40;99.90;;;;;;5053704;28;20032;-79
2023/03/02 04:58:05;;;;;;;239.55;91.07;;;4.30;99.90;;;;;;5054591;28;20427;-78
2023/03/02 05:00:33;;;;;;;209.77;84.32;;;4.40;99.90;;;;;;5054215;28;20483;-80
2023/03/02 05:02:59;;;;;;;198.80;82.00;;;4.40;99.90;;;;;;5054910;28;20029;-80
2023/03/02 05:05:26;;;;;;;209.48;79.20;;;4.30;99.90;;;;;;5054723;28;20028;-80
2023/03/02 05:07:52;;;;;;;200.38;69.25;;;4.40;99.90;;;;;;5053179;28;20117;-79
2023/03/02 05:10:21;;;;;;;187.65;67.82;;;4.30;99.90;;;;;;5054248;28;20491;-80
2023/03/02 05:13:20;;;;;;;186.00;64.65;;;4.30;99.90;;;;;;5053997;28;20606;-79
2023/03/02 05:15:40;;;;;;;189.68;71.65;;;4.40;99.90;;;;;;5052668;28;20423;-79
2023/03/02 05:18:07;;;;;;;207.38;75.43;;;4.40;99.90;;;;;;5054518;28;20033;-80
2023/03/02 05:20:34;;;;;;;215.00;80.00;;;4.40;99.90;;;;;;5054355;28;20040;-78
2023/03/02 05:23:02;;;;;;;230.57;84.68;;;4.40;99.90;;;;;;5054417;28;20033;-79
2023/03/02 05:25:30;;;;;;;223.73;85.75;;;4.50;99.90;;;;;;5054264;28;20025;-78
2023/03/02 05:27:56;;;;;;;238.40;89.57;;;4.50;99.90;;;;;;5054041;28;20111;-79
2023/03/02 05:30:23;;;;;;;237.27;88.10;;;4.50;99.90;;;;;;5054208;28;21972;-78
2023/03/02 05:32:49;;;;;;;245.05;90.75;;;4.50;99.90;;;;;;5053866;28;20025;-78
2023/03/02 05:35:16;;;;;;;225.68;86.57;;;4.60;99.90;;;;;;5052598;28;20533;-79
2023/03/02 05:37:43;;;;;;;259.92;101.88;;;4.60;99.90;;;;;;5054253;28;20028;-79
2023/03/02 05:40:11;;;;;;;244.57;90.70;;;4.60;99.90;;;;;;5053974;28;20477;-78
2023/03/02 05:42:37;;;;;;;247.50;90.90;;;4.70;99.90;;;;;;5053877;28;20025;-79
2023/03/02 05:45:05;;;;;;;240.45;89.38;;;4.70;99.90;;;;;;5053882;28;20452;-79
2023/03/02 05:47:31;;;;;;;229.52;92.15;;;4.70;99.90;;;;;;5053981;28;20017;-79
2023/03/02 05:49:58;;;;;;;281.98;113.03;;;4.80;99.90;;;;;;5053544;28;20086;-78
2023/03/02 05:52:24;;;;;;;243.65;91.82;;;4.80;99.90;;;;;;5053850;28;20033;-79
2023/03/02 05:54:50;;;;;;;215.63;82.93;;;4.70;99.90;;;;;;5053393;28;20035;-79
2023/03/02 05:57:16;;;;;;;222.10;87.95;;;4.60;99.90;;;;;;5053642;28;20375;-80
2023/03/02 05:59:41;;;;;;;228.35;87.30;;;4.60;99.90;;;;;;5053326;28;20025;-77
2023/03/02 06:02:07;;;;;;;220.77;86.35;;;4.60;99.90;;;;;;5053329;28;20044;-80
2023/03/02 06:04:33;;;;;;;242.35;91.30;;;4.60;99.90;;;;;;5052440;28;20025;-78
2023/03/02 06:06:58;;;;;;;259.45;95.88;;;4.60;99.90;;;;;;5052399;28;20033;-80
2023/03/02 06:09:24;;;;;;;242.05;95.32;;;4.70;99.90;;;;;;5052912;28;20381;-78
2023/03/02 06:11:50;;;;;;;257.95;103.05;;;4.70;99.90;;;;;;5051684;28;20052;-78
2023/03/02 06:14:15;;;;;;;267.40;110.15;;;4.70;99.90;;;;;;5052879;28;20103;-79
2023/03/02 06:16:41;;;;;;;268.67;108.93;;;4.70;99.90;;;;;;5052998;28;20021;-78
2023/03/02 06:19:07;;;;;;;269.90;107.28;;;4.80;99.90;;;;;;5053280;28;20159;-77
2023/03/02 06:21:32;;;;;;;275.83;112.70;;;4.80;99.90;;;;;;5053825;28;20373;-80
2023/03/02 06:23:58;;;;;;;303.42;121.88;;;4.90;99.90;;;;;;5053392;28;20029;-78
2023/03/02 06:26:24;;;;;;;309.67;131.43;;;4.90;99.90;;;;;;5053491;28;20025;-78
2023/03/02 06:28:49;;;;;;;334.27;150.10;;;4.90;99.90;;;;;;5053380;28;20166;-79
2023/03/02 06:31:15;;;;;;;359.98;155.82;;;4.90;99.90;;;;;;5053200;28;20033;-78
2023/03/02 06:33:41;;;;;;;337.52;143.18;;;4.90;99.90;;;;;;5053467;28;20029;-78
2023/03/02 06:36:07;;;;;;;328.95;137.32;;;4.90;99.90;;;;;;5052611;28;20108;-77
2023/03/02 06:38:32;;;;;;;317.05;126.90;;;4.90;99.90;;;;;;5052529;28;20476;-78
2023/03/02 06:40:59;;;;;;;305.20;120.15;;;4.90;99.90;;;;;;5053043;28;20049;-82
2023/03/02 06:43:24;;;;;;;266.77;103.57;;;4.80;99.90;;;;;;5052101;28;20052;-80
2023/03/02 06:45:50;;;;;;;252.10;99.72;;;4.80;99.90;;;;;;5052563;28;20444;-79
2023/03/02 06:48:16;;;;;;;224.55;89.75;;;4.80;99.90;;;;;;5051926;28;20031;-77
2023/03/02 06:50:42;;;;;;;233.25;87.22;;;4.80;99.90;;;;;;5051454;28;20033;-82
2023/03/02 06:53:07;;;;;;;263.60;93.35;;;4.70;99.90;;;;;;5053130;28;20115;-78
2023/03/02 06:55:33;;;;;;;253.20;94.53;;;4.70;99.90;;;;;;5051960;28;20033;-79
2023/03/02 06:57:59;;;;;;;257.42;99.15;;;4.80;99.90;;;;;;5051843;28;20036;-78
2023/03/02 07:00:26;;;;;;;447.65;179.98;;;4.80;99.90;;;;;;5052245;28;20021;-80
2023/03/02 07:02:54;;;;;;;292.27;115.60;;;4.80;99.90;;;;;;5052478;28;20032;-77
2023/03/02 07:05:20;;;;;;;241.88;89.50;;;4.80;99.90;;;;;;5051887;28;20029;-79
2023/03/02 07:07:46;;;;;;;245.23;92.60;;;4.90;99.90;;;;;;5052114;28;20396;-79
2023/03/02 07:10:12;;;;;;;257.25;102.00;;;4.90;99.90;;;;;;5052879;28;20033;-78
2023/03/02 07:12:39;;;;;;;252.18;104.80;;;4.90;99.90;;;;;;5052248;28;20029;-79
2023/03/02 07:15:11;;;;;;;278.38;108.82;;;4.90;99.90;;;;;;5056210;28;20074;-81
2023/03/02 07:17:38;;;;;;;270.20;114.18;;;4.90;99.90;;;;;;5057715;28;20375;-78
2023/03/02 07:20:05;;;;;;;277.05;110.07;;;4.90;99.90;;;;;;5055612;28;20064;-77
2023/03/02 07:22:31;;;;;;;274.50;109.80;;;5.00;99.90;;;;;;5056797;28;20059;-79
2023/03/02 07:24:57;;;;;;;257.92;108.13;;;5.00;99.90;;;;;;5055199;28;20483;-79
2023/03/02 07:27:23;;;;;;;262.50;109.53;;;5.00;99.90;;;;;;5055208;28;20553;-78
2023/03/02 07:29:48;;;;;;;276.98;113.00;;;5.00;99.90;;;;;;5056579;28;20104;-77
2023/03/02 07:32:14;;;;;;;295.73;120.88;;;5.00;99.90;;;;;;5056372;28;20139;-77
2023/03/02 07:34:40;;;;;;;315.98;148.35;;;5.00;99.90;;;;;;5055266;28;20380;-78
2023/03/02 07:37:06;;;;;;;277.08;115.60;;;5.10;99.90;;;;;;5055162;28;20047;-78
2023/03/02 07:39:32;;;;;;;281.38;120.47;;;5.10;99.90;;;;;;5055093;28;20025;-78
2023/03/02 07:41:59;;;;;;;288.35;129.63;;;5.10;99.90;;;;;;5055862;28;20127;-78
2023/03/02 07:44:25;;;;;;;297.50;113.47;;;5.20;99.90;;;;;;5056569;28;20025;-79
2023/03/02 07:46:50;;;;;;;271.70;108.53;;;5.10;99.90;;;;;;5056136;28;20025;-79
2023/03/02 07:49:16;;;;;;;278.25;107.82;;;5.10;99.90;;;;;;5056568;28;20036;-80
2023/03/02 07:51:42;;;;;;;269.80;111.90;;;5.10;99.90;;;;;;5056491;28;20025;-80
2023/03/02 07:54:08;;;;;;;316.55;122.90;;;5.10;99.90;;;;;;5056139;28;20385;-78
2023/03/02 07:56:34;;;;;;;272.67;111.07;;;5.10;99.90;;;;;;5056401;28;20040;-77
2023/03/02 14:56:47;;;;;;;150.07;73.10;;;7.90;99.90;;;;;;5111376;27;20449;-79
2023/03/02 14:59:14;;;;;;;155.13;70.90;;;8.30;99.90;;;;;;5111413;28;20028;-80
2023/03/02 15:01:40;;;;;;;172.50;79.55;;;8.30;99.90;;;;;;5111762;28;20043;-79
2023/03/02 15:04:06;;;;;;;152.70;71.55;;;8.20;99.90;;;;;;5111378;28;20028;-79
2023/03/02 15:06:42;;;;;;;151.48;67.78;;;8.20;99.90;;;;;;5109876;28;20032;-81
2023/03/02 15:09:09;;;;;;;167.73;72.43;;;8.10;99.90;;;;;;5109957;28;20487;-79
2023/03/02 15:11:35;;;;;;;191.43;86.88;;;8.10;99.90;;;;;;5111280;28;20015;-80
2023/03/02 15:14:00;;;;;;;182.45;81.78;;;8.00;99.90;;;;;;5110960;28;20113;-79
2023/03/02 15:16:26;;;;;;;173.02;77.35;;;8.00;99.90;;;;;;5110789;28;20376;-81
2023/03/02 15:18:52;;;;;;;166.70;76.00;;;8.00;99.90;;;;;;5109810;28;20031;-80
2023/03/02 15:21:21;;;;;;;170.90;75.60;;;7.90;99.90;;;;;;5109442;28;20020;-83
2023/03/02 15:23:47;;;;;;;136.88;60.75;;;7.90;99.90;;;;;;5111025;28;20019;-80
2023/03/02 15:26:13;;;;;;;146.25;67.35;;;7.90;99.90;;;;;;5110583;28;20089;-79
2023/03/02 15:28:39;;;;;;;142.15;65.55;;;7.90;99.90;;;;;;5109271;28;20039;-81
2023/03/02 15:31:15;;;;;;;157.32;66.35;;;7.80;99.90;;;;;;5110861;28;20161;-79
2023/03/02 15:33:42;;;;;;;163.63;72.97;;;7.80;99.90;;;;;;5110701;28;20020;-79
2023/03/02 15:36:08;;;;;;;143.52;64.68;;;7.80;99.90;;;;;;5110179;28;20421;-82
2023/03/02 15:38:35;;;;;;;157.10;72.00;;;7.80;99.90;;;;;;5110967;28;20364;-79
2023/03/02 15:41:10;;;;;;;139.60;65.50;;;7.80;99.90;;;;;;5110720;28;20027;-81
2023/03/02 15:43:36;;;;;;;151.63;71.30;;;7.70;99.90;;;;;;5108910;28;20114;-79
2023/03/02 15:46:03;;;;;;;208.52;94.00;;;7.70;99.90;;;;;;5110214;28;20119;-78
2023/03/02 15:48:29;;;;;;;228.05;108.30;;;7.70;99.90;;;;;;5108922;28;20538;-79
2023/03/02 15:51:06;;;;;;;218.55;104.97;;;7.60;99.90;;;;;;5110202;28;20111;-80
2023/03/02 15:53:34;;;;;;;241.23;126.70;;;7.60;99.90;;;;;;5109214;28;20024;-79
2023/03/02 15:56:06;;;;;;;202.00;97.07;;;7.60;99.90;;;;;;5106288;28;20052;-79
2023/03/02 15:58:32;;;;;;;;;;;7.60;99.90;;;;;;5096997;28;20066;-79
2023/03/02 16:00:57;;;;;;;173.20;77.10;;;7.50;99.90;;;;;;5096578;28;20002;-81
2023/03/02 16:03:23;;;;;;;228.50;98.80;;;7.50;99.90;;;;;;5095498;28;20096;-81
2023/03/02 16:05:49;;;;;;;382.48;173.95;;;7.50;99.90;;;;;;5096616;28;20028;-82
2023/03/02 16:08:15;;;;;;;247.18;112.50;;;7.50;99.90;;;;;;5095076;28;20028;-82
2023/03/02 16:10:44;;;;;;;362.27;163.68;;;7.50;99.90;;;;;;5094896;28;20028;-81
2023/03/02 16:13:13;;;;;;;269.55;125.88;;;7.40;99.90;;;;;;5095193;28;20020;-80
2023/03/02 16:15:40;;;;;;;309.25;156.52;;;7.40;99.90;;;;;;5096461;28;20066;-81
2023/03/02 16:18:09;;;;;;;292.55;137.43;;;7.40;99.90;;;;;;5094722;28;20107;-81
2023/03/02 16:20:37;;;;;;;273.70;134.05;;;7.40;99.90;;;;;;5095497;28;20077;-82
2023/03/02 16:23:08;;;;;;;216.43;105.15;;;7.40;99.90;;;;;;5095966;28;20029;-80
2023/03/02 16:25:39;;;;;;;237.77;106.27;;;7.40;99.90;;;;;;5094949;28;20119;-79
2023/03/02 16:28:10;;;;;;;229.45;105.75;;;7.40;99.90;;;;;;5095083;28;20116;-82
2023/03/02 16:30:36;;;;;;;213.68;91.97;;;7.40;99.90;;;;;;5094573;28;20067;-80
2023/03/02 16:33:04;;;;;;;202.88;88.72;;;7.40;99.90;;;;;;5096153;28;20016;-79
2023/03/02 16:35:32;;;;;;;194.15;83.93;;;7.40;99.90;;;;;;5095761;28;20433;-83
2023/03/02 16:37:58;;;;;;;192.10;78.35;;;7.40;99.90;;;;;;5094429;28;20039;-81
2023/03/02 16:40:24;;;;;;;194.10;78.90;;;7.30;99.90;;;;;;5094398;28;20027;-80
2023/03/02 16:42:50;;;;;;;187.68;84.90;;;7.30;99.90;;;;;;5095835;28;20024;-82
2023/03/02 16:45:17;;;;;;;189.55;76.28;;;7.30;99.90;;;;;;5095460;28;20024;-82
2023/03/02 16:47:43;;;;;;;212.93;88.28;;;7.30;99.90;;;;;;5095938;28;20489;-80
2023/03/02 16:50:12;;;;;;;240.98;100.70;;;7.30;99.90;;;;;;5094449;28;20024;-79
2023/03/02 16:52:38;;;;;;;208.45;92.25;;;7.30;99.90;;;;;;5095524;28;20028;-81
2023/03/02 16:55:10;;;;;;;187.68;85.00;;;7.20;99.90;;;;;;5095245;28;20509;-80
2023/03/02 16:57:36;;;;;;;184.77;79.05;;;7.20;99.90;;;;;;5095691;28;20028;-81
2023/03/02 17:00:04;;;;;;;173.23;70.78;;;7.20;99.90;;;;;;5095190;28;20022;-81
2023/03/02 17:02:30;;;;;;;216.48;91.03;;;7.20;99.90;;;;;;5095556;28;20028;-82
2023/03/02 17:04:56;;;;;;;259.30;104.95;;;7.10;99.90;;;;;;5095435;28;20054;-80
2023/03/02 17:07:22;;;;;;;280.10;122.85;;;7.10;99.90;;;;;;5094667;28;20087;-78
2023/03/02 17:09:47;;;;;;;392.17;197.75;;;7.10;99.90;;;;;;5094615;28;20028;-79
2023/03/02 17:12:13;;;;;;;275.30;127.57;;;7.10;99.90;;;;;;5093394;28;20111;-80
2023/03/02 17:14:39;;;;;;;255.70;130.35;;;7.10;99.90;;;;;;5095288;28;20036;-79
2023/03/02 17:17:04;;;;;;;241.27;105.88;;;7.10;99.90;;;;;;5094962;28;20028;-80
2023/03/02 17:19:30;;;;;;;257.13;110.28;;;7.10;99.90;;;;;;5093682;28;20035;-78
2023/03/02 17:22:00;;;;;;;279.02;113.13;;;7.00;99.90;;;;;;5094948;28;20024;-81
2023/03/02 17:24:27;;;;;;;248.35;95.43;;;7.10;99.90;;;;;;5095136;28;20521;-80
2023/03/02 17:26:53;;;;;;;211.93;81.30;;;7.10;99.90;;;;;;5094772;28;20065;-79
2023/03/02 17:29:19;;;;;;;232.95;87.50;;;7.00;99.90;;;;;;5093685;28;20119;-77
2023/03/02 17:31:44;;;;;;;267.45;107.82;;;7.00;99.90;;;;;;5094632;28;20027;-80
2023/03/02 17:34:11;;;;;;;270.52;102.82;;;7.00;99.90;;;;;;5094635;28;20035;-82
2023/03/02 17:36:37;;;;;;;331.05;126.03;;;7.00;99.90;;;;;;5093788;28;20024;-80
2023/03/02 17:39:04;;;;;;;384.02;143.15;;;7.00;99.90;;;;;;5094866;28;20108;-79
2023/03/02 17:41:31;;;;;;;282.83;106.03;;;7.00;99.90;;;;;;5094453;28;20090;-78
2023/03/02 17:43:57;;;;;;;220.88;79.95;;;7.00;99.90;;;;;;5094524;28;20404;-78
2023/03/02 17:46:24;;;;;;;220.15;75.53;;;7.00;99.90;;;;;;5093017;28;20040;-82
2023/03/02 17:48:52;;;;;;;227.15;82.90;;;7.00;99.90;;;;;;5094587;28;20078;-79
2023/03/02 17:51:18;;;;;;;229.82;83.85;;;6.90;99.90;;;;;;5094309;28;20024;-80
2023/03/02 17:53:45;;;;;;;235.90;81.97;;;6.90;99.90;;;;;;5093321;28;20098;-81
2023/03/02 17:56:14;;;;;;;257.42;93.05;;;6.90;99.90;;;;;;5092599;28;20070;-79
2023/03/02 17:58:40;;;;;;;256.05;93.38;;;6.90;99.90;;;;;;5093201;28;20051;-78
2023/03/02 18:01:06;;;;;;;267.38;90.53;;;6.90;99.90;;;;;;5093825;28;20046;-80
2023/03/02 18:03:32;;;;;;;310.05;112.60;;;6.90;99.90;;;;;;5094879;28;20032;-80
2023/03/02 18:05:58;;;;;;;289.73;99.60;;;6.90;99.90;;;;;;5094387;28;20027;-82
2023/03/02 18:08:24;;;;;;;271.08;92.72;;;6.80;99.90;;;;;;5094241;28;20382;-80
2023/03/02 18:10:50;;;;;;;399.33;148.50;;;6.80;99.90;;;;;;5093209;28;20031;-80
2023/03/02 18:13:17;;;;;;;344.95;127.90;;;6.80;99.90;;;;;;5094209;28;20017;-79
2023/03/02 18:15:42;;;;;;;402.42;165.65;;;6.90;99.90;;;;;;5094134;28;20028;-80
2023/03/02 18:18:08;;;;;;;365.40;138.93;;;6.90;99.90;;;;;;5094425;28;20020;-78
2023/03/02 18:20:34;;;;;;;383.95;141.02;;;6.90;99.90;;;;;;5092628;28;20157;-80
2023/03/02 18:23:01;;;;;;;341.33;124.07;;;6.90;99.90;;;;;;5092485;28;20028;-79
2023/03/02 18:25:27;;;;;;;309.23;115.45;;;6.90;99.90;;;;;;5094038;28;20039;-80
2023/03/02 18:27:53;;;;;;;282.45;102.57;;;6.90;99.90;;;;;;5093542;28;20365;-80
2023/03/02 18:30:20;;;;;;;335.40;121.38;;;6.90;99.90;;;;;;5092447;28;20042;-80
2023/03/02 18:32:45;;;;;;;308.48;111.13;;;6.90;99.90;;;;;;5094362;28;20039;-80
2023/03/02 18:35:11;;;;;;;265.98;93.47;;;6.90;99.90;;;;;;5091186;28;20032;-80
2023/03/02 18:37:37;;;;;;;277.25;93.78;;;6.90;99.90;;;;;;5091514;28;20405;-82
2023/03/02 18:40:04;;;;;;;275.08;89.38;;;6.80;99.90;;;;;;5092030;28;20020;-82
2023/03/02 18:42:30;;;;;;;299.52;104.65;;;6.80;99.90;;;;;;5092999;28;20020;-81
2023/03/02 18:44:56;;;;;;;422.92;151.73;;;6.80;99.90;;;;;;5092621;28;20093;-81
2023/03/02 18:47:21;;;;;;;379.05;133.85;;;6.80;99.90;;;;;;5093214;28;20031;-81
2023/03/02 18:49:48;;;;;;;491.17;154.95;;;6.80;99.90;;;;;;5093013;28;20028;-83
2023/03/02 18:52:15;;;;;;;607.90;215.15;;;6.80;99.90;;;;;;5091573;28;20129;-80
2023/03/02 18:54:42;;;;;;;510.77;202.32;;;6.80;99.90;;;;;;5092542;28;20059;-81
2023/03/02 18:57:08;;;;;;;352.88;130.85;;;6.80;99.90;;;;;;5091609;28;20024;-80
2023/03/02 18:59:35;;;;;;;312.52;108.32;;;6.80;99.90;;;;;;5091621;28;20024;-80
2023/03/02 19:02:11;;;;;;;316.05;111.13;;;6.80;99.90;;;;;;5093055;28;20028;-82
2023/03/02 19:04:37;;;;;;;302.73;106.35;;;6.80;99.90;;;;;;5092299;28;20464;-82
2023/03/02 19:07:05;;;;;;;321.25;108.00;;;6.80;99.90;;;;;;5091525;28;20039;-82
2023/03/02 19:09:32;;;;;;;313.75;108.65;;;6.80;99.90;;;;;;5092880;28;20016;-82
2023/03/02 19:11:58;;;;;;;344.00;116.72;;;6.80;99.90;;;;;;5092932;28;20028;-82
2023/03/02 19:14:24;;;;;;;357.77;117.72;;;6.80;99.90;;;;;;5091702;28;20032;-83
2023/03/02 19:16:49;;;;;;;368.08;129.30;;;6.80;99.90;;;;;;5091013;28;20024;-83
2023/03/02 19:19:15;;;;;;;339.90;106.30;;;6.80;99.90;;;;;;5091317;28;20024;-83
2023/03/02 19:21:41;;;;;;;350.33;115.50;;;6.70;99.90;;;;;;5091394;28;20035;-81
2023/03/02 19:24:07;;;;;;;432.40;151.25;;;6.70;99.90;;;;;;5091477;28;20028;-83